sensor_id;sensor_type;location;lat;lon;timestamp;P1;durP1;ratioP1;P2;durP2;ratioP2
28459;SDS011;32528;45.712;9.192;2023-07-20T17:34:41;13.07;;;5.53;;
28459;SDS011;32528;45.712;9.192;2023-07-20T17:36:42;10.83;;;6.03;;
28459;SDS011;32528;45.712;9.192;2023-07-20T17:38:43;9.80;;;4.40;;
28459;SDS011;32528;45.712;9.192;2023-07-20T17:40:43;12.02;;;4.53;;
28459;SDS011;32528;45.712;9.192;2023-07-20T17:42:44;13.20;;;5.18;;
28459;SDS011;32528;45.712;9.192;2023-07-20T17:44:47;15.63;;;5.88;;
28459;SDS011;32528;45.712;9.192;2023-07-20T17:46:48;11.40;;;4.80;;
28459;SDS011;32528;45.712;9.192;2023-07-20T17:48:50;12.27;;;4.88;;
28459;SDS011;32528;45.712;9.192;2023-07-20T17:50:50;10.80;;;4.82;;
28459;SDS011;32528;45.712;9.192;2023-07-20T17:52:51;9.65;;;4.75;;
28459;SDS011;32528;45.712;9.192;2023-07-20T17:54:52;10.02;;;4.32;;
28459;SDS011;32528;45.712;9.192;2023-07-20T17:56:53;16.95;;;5.28;;
28459;SDS011;32528;45.712;9.192;2023-07-20T17:58:53;13.25;;;5.80;;
28459;SDS011;32528;45.712;9.192;2023-07-20T18:00:57;18.65;;;4.38;;
28459;SDS011;32528;45.712;9.192;2023-07-20T18:02:58;10.68;;;5.47;;
28459;SDS011;32528;45.712;9.192;2023-07-20T18:04:59;8.75;;;4.63;;
28459;SDS011;32528;45.712;9.192;2023-07-20T18:07:00;13.55;;;4.60;;
28459;SDS011;32528;45.712;9.192;2023-07-20T18:09:00;12.75;;;4.85;;
28459;SDS011;32528;45.712;9.192;2023-07-20T18:11:02;9.30;;;4.40;;
28459;SDS011;32528;45.712;9.192;2023-07-20T18:13:06;12.20;;;5.15;;
28459;SDS011;32528;45.712;9.192;2023-07-20T18:15:07;10.75;;;4.47;;
28459;SDS011;32528;45.712;9.192;2023-07-20T18:17:08;13.95;;;4.68;;
28459;SDS011;32528;45.712;9.192;2023-07-20T18:19:09;18.20;;;5.50;;
28459;SDS011;32528;45.712;9.192;2023-07-20T18:21:10;12.15;;;5.07;;
28459;SDS011;32528;45.712;9.192;2023-07-20T18:23:10;14.05;;;4.85;;
28459;SDS011;32528;45.712;9.192;2023-07-20T18:25:11;11.68;;;5.20;;
28459;SDS011;32528;45.712;9.192;2023-07-20T18:27:12;13.68;;;6.70;;
28459;SDS011;32528;45.712;9.192;2023-07-20T18:29:13;20.42;;;6.25;;
28459;SDS011;32528;45.712;9.192;2023-07-20T18:31:14;13.63;;;4.97;;
28459;SDS011;32528;45.712;9.192;2023-07-20T18:33:15;16.33;;;5.70;;
28459;SDS011;32528;45.712;9.192;2023-07-20T18:35:16;12.88;;;5.25;;
28459;SDS011;32528;45.712;9.192;2023-07-20T18:37:17;10.45;;;5.38;;
28459;SDS011;32528;45.712;9.192;2023-07-20T18:39:19;12.55;;;4.70;;
28459;SDS011;32528;45.712;9.192;2023-07-20T18:41:20;11.00;;;4.80;;
28459;SDS011;32528;45.712;9.192;2023-07-20T18:43:22;10.43;;;5.22;;
28459;SDS011;32528;45.712;9.192;2023-07-20T18:45:23;16.20;;;6.97;;
28459;SDS011;32528;45.712;9.192;2023-07-20T18:47:24;11.80;;;5.97;;
28459;SDS011;32528;45.712;9.192;2023-07-20T18:49:25;21.75;;;6.65;;
28459;SDS011;32528;45.712;9.192;2023-07-20T18:51:26;9.45;;;4.50;;
28459;SDS011;32528;45.712;9.192;2023-07-20T18:53:27;12.82;;;5.68;;
28459;SDS011;32528;45.712;9.192;2023-07-20T18:55:27;16.52;;;6.05;;
28459;SDS011;32528;45.712;9.192;2023-07-20T18:57:29;15.60;;;5.72;;
28459;SDS011;32528;45.712;9.192;2023-07-20T18:59:30;10.63;;;5.88;;
28459;SDS011;32528;45.712;9.192;2023-07-20T19:01:30;12.65;;;5.70;;
28459;SDS011;32528;45.712;9.192;2023-07-20T19:03:31;10.77;;;4.85;;
28459;SDS011;32528;45.712;9.192;2023-07-20T19:05:32;14.90;;;6.30;;
28459;SDS011;32528;45.712;9.192;2023-07-20T19:07:37;14.48;;;4.93;;
28459;SDS011;32528;45.712;9.192;2023-07-20T19:09:38;17.63;;;6.80;;
28459;SDS011;32528;45.712;9.192;2023-07-20T19:11:39;13.98;;;6.80;;
28459;SDS011;32528;45.712;9.192;2023-07-20T19:13:40;12.13;;;5.43;;
28459;SDS011;32528;45.712;9.192;2023-07-20T19:15:47;12.65;;;6.00;;
28459;SDS011;32528;45.712;9.192;2023-07-20T19:17:48;10.25;;;5.47;;
28459;SDS011;32528;45.712;9.192;2023-07-20T19:19:49;10.43;;;4.85;;
28459;SDS011;32528;45.712;9.192;2023-07-20T19:21:50;16.85;;;5.93;;
28459;SDS011;32528;45.712;9.192;2023-07-20T19:23:51;11.45;;;5.32;;
28459;SDS011;32528;45.712;9.192;2023-07-20T19:25:52;18.77;;;5.50;;
28459;SDS011;32528;45.712;9.192;2023-07-20T19:27:56;10.35;;;6.05;;
28459;SDS011;32528;45.712;9.192;2023-07-20T19:29:56;16.38;;;5.93;;
28459;SDS011;32528;45.712;9.192;2023-07-20T19:31:57;12.40;;;6.07;;
28459;SDS011;32528;45.712;9.192;2023-07-20T19:33:58;14.43;;;6.80;;
28459;SDS011;32528;45.712;9.192;2023-07-20T19:35:59;14.02;;;6.22;;
28459;SDS011;32528;45.712;9.192;2023-07-20T19:38:00;8.40;;;4.78;;
28459;SDS011;32528;45.712;9.192;2023-07-20T19:40:00;15.30;;;6.47;;
28459;SDS011;32528;45.712;9.192;2023-07-20T19:42:01;14.15;;;6.18;;
28459;SDS011;32528;45.712;9.192;2023-07-20T19:44:02;18.15;;;6.25;;
28459;SDS011;32528;45.712;9.192;2023-07-20T19:46:03;13.35;;;6.70;;
28459;SDS011;32528;45.712;9.192;2023-07-20T19:48:04;11.30;;;6.35;;
28459;SDS011;32528;45.712;9.192;2023-07-20T19:50:06;17.13;;;7.45;;
28459;SDS011;32528;45.712;9.192;2023-07-20T19:52:07;13.52;;;7.35;;
28459;SDS011;32528;45.712;9.192;2023-07-20T19:54:08;10.32;;;6.00;;
28459;SDS011;32528;45.712;9.192;2023-07-20T19:56:08;10.30;;;6.72;;
28459;SDS011;32528;45.712;9.192;2023-07-20T19:58:09;22.88;;;6.90;;
28459;SDS011;32528;45.712;9.192;2023-07-20T20:00:10;12.75;;;5.68;;
28459;SDS011;32528;45.712;9.192;2023-07-20T20:02:11;21.88;;;6.82;;
28459;SDS011;32528;45.712;9.192;2023-07-20T20:04:12;17.38;;;5.75;;
28459;SDS011;32528;45.712;9.192;2023-07-20T20:06:13;13.75;;;5.63;;
28459;SDS011;32528;45.712;9.192;2023-07-20T20:08:14;12.73;;;6.80;;
28459;SDS011;32528;45.712;9.192;2023-07-20T20:10:14;15.98;;;6.47;;
28459;SDS011;32528;45.712;9.192;2023-07-20T20:12:15;12.15;;;6.95;;
28459;SDS011;32528;45.712;9.192;2023-07-20T20:14:18;17.40;;;6.65;;
28459;SDS011;32528;45.712;9.192;2023-07-20T20:16:19;17.05;;;7.20;;
28459;SDS011;32528;45.712;9.192;2023-07-20T20:18:20;10.52;;;5.20;;
28459;SDS011;32528;45.712;9.192;2023-07-20T20:20:22;14.38;;;6.32;;
28459;SDS011;32528;45.712;9.192;2023-07-20T20:22:23;20.02;;;6.97;;
28459;SDS011;32528;45.712;9.192;2023-07-20T20:24:24;15.00;;;6.97;;
28459;SDS011;32528;45.712;9.192;2023-07-20T20:26:25;16.02;;;6.22;;
28459;SDS011;32528;45.712;9.192;2023-07-20T20:28:26;10.50;;;4.90;;
28459;SDS011;32528;45.712;9.192;2023-07-20T20:30:27;14.70;;;6.32;;
28459;SDS011;32528;45.712;9.192;2023-07-20T20:32:28;14.10;;;6.82;;
28459;SDS011;32528;45.712;9.192;2023-07-20T20:34:31;23.13;;;7.68;;
28459;SDS011;32528;45.712;9.192;2023-07-20T20:36:32;17.10;;;6.30;;
28459;SDS011;32528;45.712;9.192;2023-07-20T20:38:32;11.65;;;6.40;;
28459;SDS011;32528;45.712;9.192;2023-07-20T20:40:33;14.13;;;6.03;;
28459;SDS011;32528;45.712;9.192;2023-07-20T20:42:34;14.05;;;6.22;;
28459;SDS011;32528;45.712;9.192;2023-07-20T20:44:35;16.38;;;7.50;;
28459;SDS011;32528;45.712;9.192;2023-07-20T20:46:35;13.57;;;7.00;;
28459;SDS011;32528;45.712;9.192;2023-07-20T20:48:37;11.77;;;5.95;;
28459;SDS011;32528;45.712;9.192;2023-07-20T20:50:39;12.32;;;6.57;;
28459;SDS011;32528;45.712;9.192;2023-07-20T20:52:46;12.05;;;6.00;;
28459;SDS011;32528;45.712;9.192;2023-07-20T20:54:47;13.80;;;6.15;;
28459;SDS011;32528;45.712;9.192;2023-07-20T20:56:51;16.05;;;6.53;;
28459;SDS011;32528;45.712;9.192;2023-07-20T20:58:52;14.38;;;6.85;;
28459;SDS011;32528;45.712;9.192;2023-07-20T21:00:59;14.02;;;6.60;;
28459;SDS011;32528;45.712;9.192;2023-07-20T21:03:03;14.85;;;7.53;;
28459;SDS011;32528;45.712;9.192;2023-07-20T21:05:04;18.58;;;5.97;;
28459;SDS011;32528;45.712;9.192;2023-07-20T21:07:06;13.55;;;6.95;;
28459;SDS011;32528;45.712;9.192;2023-07-20T21:09:06;17.17;;;6.80;;
28459;SDS011;32528;45.712;9.192;2023-07-20T21:11:07;20.80;;;7.75;;
28459;SDS011;32528;45.712;9.192;2023-07-20T21:13:08;15.65;;;6.38;;
28459;SDS011;32528;45.712;9.192;2023-07-20T21:15:09;20.92;;;6.30;;
28459;SDS011;32528;45.712;9.192;2023-07-20T21:17:10;14.75;;;8.13;;
28459;SDS011;32528;45.712;9.192;2023-07-20T21:19:10;14.13;;;6.53;;
28459;SDS011;32528;45.712;9.192;2023-07-20T21:21:11;10.30;;;5.47;;
28459;SDS011;32528;45.712;9.192;2023-07-20T21:23:12;14.68;;;7.05;;
28459;SDS011;32528;45.712;9.192;2023-07-20T21:25:14;17.08;;;7.18;;
28459;SDS011;32528;45.712;9.192;2023-07-20T21:27:15;15.93;;;6.80;;
28459;SDS011;32528;45.712;9.192;2023-07-20T21:29:15;20.00;;;6.80;;
28459;SDS011;32528;45.712;9.192;2023-07-20T21:31:16;17.02;;;6.53;;
28459;SDS011;32528;45.712;9.192;2023-07-20T21:33:17;12.75;;;6.60;;
28459;SDS011;32528;45.712;9.192;2023-07-20T21:35:18;17.98;;;6.43;;
28459;SDS011;32528;45.712;9.192;2023-07-20T21:37:19;17.38;;;7.38;;
28459;SDS011;32528;45.712;9.192;2023-07-20T21:39:19;15.27;;;6.35;;
28459;SDS011;32528;45.712;9.192;2023-07-20T21:41:20;18.23;;;6.60;;
28459;SDS011;32528;45.712;9.192;2023-07-20T21:43:21;15.10;;;5.43;;
28459;SDS011;32528;45.712;9.192;2023-07-20T21:45:22;13.38;;;5.55;;
28459;SDS011;32528;45.712;9.192;2023-07-20T21:47:23;18.17;;;6.68;;
28459;SDS011;32528;45.712;9.192;2023-07-20T21:49:24;18.27;;;6.13;;
28459;SDS011;32528;45.712;9.192;2023-07-20T21:51:24;13.75;;;5.30;;
28459;SDS011;32528;45.712;9.192;2023-07-20T21:53:25;13.80;;;6.05;;
28459;SDS011;32528;45.712;9.192;2023-07-20T21:55:26;18.33;;;6.15;;
28459;SDS011;32528;45.712;9.192;2023-07-20T21:57:26;16.63;;;8.10;;
28459;SDS011;32528;45.712;9.192;2023-07-20T21:59:27;14.10;;;5.40;;
28459;SDS011;32528;45.712;9.192;2023-07-20T22:01:28;21.23;;;7.53;;
28459;SDS011;32528;45.712;9.192;2023-07-20T22:03:29;18.67;;;6.55;;
28459;SDS011;32528;45.712;9.192;2023-07-20T22:05:30;20.42;;;6.93;;
28459;SDS011;32528;45.712;9.192;2023-07-20T22:07:30;12.30;;;6.95;;
28459;SDS011;32528;45.712;9.192;2023-07-20T22:09:31;18.10;;;6.15;;
28459;SDS011;32528;45.712;9.192;2023-07-20T22:11:34;19.05;;;6.50;;
28459;SDS011;32528;45.712;9.192;2023-07-20T22:13:35;20.30;;;8.00;;
28459;SDS011;32528;45.712;9.192;2023-07-20T22:15:36;20.77;;;8.10;;
28459;SDS011;32528;45.712;9.192;2023-07-20T22:17:36;17.33;;;7.03;;
28459;SDS011;32528;45.712;9.192;2023-07-20T22:19:37;13.02;;;6.18;;
28459;SDS011;32528;45.712;9.192;2023-07-20T22:21:38;21.40;;;7.60;;
28459;SDS011;32528;45.712;9.192;2023-07-20T22:23:39;14.40;;;6.82;;
28459;SDS011;32528;45.712;9.192;2023-07-20T22:25:39;12.05;;;6.25;;
28459;SDS011;32528;45.712;9.192;2023-07-20T22:27:42;19.80;;;6.30;;
28459;SDS011;32528;45.712;9.192;2023-07-20T22:29:42;11.95;;;6.40;;
28459;SDS011;32528;45.712;9.192;2023-07-20T22:31:44;14.40;;;7.03;;
28459;SDS011;32528;45.712;9.192;2023-07-20T22:33:44;19.60;;;7.80;;
28459;SDS011;32528;45.712;9.192;2023-07-20T22:35:47;13.40;;;7.63;;
28459;SDS011;32528;45.712;9.192;2023-07-20T22:37:49;22.05;;;7.38;;
28459;SDS011;32528;45.712;9.192;2023-07-20T22:39:50;13.15;;;8.40;;
28459;SDS011;32528;45.712;9.192;2023-07-20T22:41:51;13.02;;;7.05;;
28459;SDS011;32528;45.712;9.192;2023-07-20T22:43:52;16.90;;;8.05;;
28459;SDS011;32528;45.712;9.192;2023-07-20T22:45:52;15.75;;;7.35;;
28459;SDS011;32528;45.712;9.192;2023-07-20T22:47:54;12.70;;;6.93;;
28459;SDS011;32528;45.712;9.192;2023-07-20T22:49:55;27.42;;;7.63;;
28459;SDS011;32528;45.712;9.192;2023-07-20T22:51:58;17.80;;;7.15;;
28459;SDS011;32528;45.712;9.192;2023-07-20T22:53:59;11.77;;;6.40;;
28459;SDS011;32528;45.712;9.192;2023-07-20T22:56:00;18.40;;;10.65;;
28459;SDS011;32528;45.712;9.192;2023-07-20T22:58:01;14.75;;;7.45;;
28459;SDS011;32528;45.712;9.192;2023-07-20T23:00:02;13.65;;;5.97;;
28459;SDS011;32528;45.712;9.192;2023-07-20T23:02:09;14.30;;;7.20;;
28459;SDS011;32528;45.712;9.192;2023-07-20T23:04:11;14.13;;;6.93;;
28459;SDS011;32528;45.712;9.192;2023-07-20T23:06:11;19.42;;;7.93;;
28459;SDS011;32528;45.712;9.192;2023-07-20T23:08:12;16.95;;;7.20;;
28459;SDS011;32528;45.712;9.192;2023-07-20T23:10:13;12.23;;;6.95;;
28459;SDS011;32528;45.712;9.192;2023-07-20T23:12:13;14.05;;;6.57;;
28459;SDS011;32528;45.712;9.192;2023-07-20T23:14:14;18.42;;;8.13;;
28459;SDS011;32528;45.712;9.192;2023-07-20T23:16:15;19.40;;;7.40;;
28459;SDS011;32528;45.712;9.192;2023-07-20T23:18:16;14.15;;;7.60;;
28459;SDS011;32528;45.712;9.192;2023-07-20T23:20:17;21.95;;;7.15;;
28459;SDS011;32528;45.712;9.192;2023-07-20T23:22:23;13.25;;;8.48;;
28459;SDS011;32528;45.712;9.192;2023-07-20T23:24:24;22.63;;;9.60;;
28459;SDS011;32528;45.712;9.192;2023-07-20T23:26:26;14.73;;;9.40;;
28459;SDS011;32528;45.712;9.192;2023-07-20T23:28:26;26.05;;;11.38;;
28459;SDS011;32528;45.712;9.192;2023-07-20T23:30:27;13.73;;;8.32;;
28459;SDS011;32528;45.712;9.192;2023-07-20T23:32:28;20.02;;;8.70;;
28459;SDS011;32528;45.712;9.192;2023-07-20T23:34:28;17.42;;;10.48;;
28459;SDS011;32528;45.712;9.192;2023-07-20T23:36:29;18.48;;;9.25;;
28459;SDS011;32528;45.712;9.192;2023-07-20T23:38:30;14.05;;;8.68;;
28459;SDS011;32528;45.712;9.192;2023-07-20T23:40:31;19.58;;;8.27;;
28459;SDS011;32528;45.712;9.192;2023-07-20T23:42:31;14.38;;;8.60;;
28459;SDS011;32528;45.712;9.192;2023-07-20T23:44:32;12.30;;;8.05;;
28459;SDS011;32528;45.712;9.192;2023-07-20T23:46:33;14.82;;;6.88;;
28459;SDS011;32528;45.712;9.192;2023-07-20T23:48:34;15.02;;;8.20;;
28459;SDS011;32528;45.712;9.192;2023-07-20T23:50:41;14.45;;;8.00;;
28459;SDS011;32528;45.712;9.192;2023-07-20T23:52:44;15.18;;;8.88;;
28459;SDS011;32528;45.712;9.192;2023-07-20T23:54:45;14.48;;;8.77;;
28459;SDS011;32528;45.712;9.192;2023-07-20T23:56:45;21.38;;;8.73;;
28459;SDS011;32528;45.712;9.192;2023-07-20T23:58:46;22.23;;;7.80;;
